Time;durP1;ratioP1;P1;durP2;ratioP2;P2;SDS_P1;SDS_P2;PMS_P1;PMS_P2;Temp;Humidity;BMP_temperature;BMP_pressure;BME280_temperature;BME280_humidity;BME280_pressure;Samples;Min_cycle;Max_cycle;Signal;HPM_P1;HPM_P2
2022/01/29 00:00:05;;;;;;;;;;;;;;;;;;5117667;27;19923;-76
2022/01/29 00:02:37;;;;;;;;;;;;;;;;;;5136909;27;20279;-76
2022/01/29 00:05:03;;;;;;;;;;;;;;;;;;5118421;27;20004;-75
2022/01/29 00:07:28;;;;;;;;;;;;;;;;;;5136521;27;20353;-76
2022/01/29 00:10:00;;;;;;;;;;;;;;;;;;5136454;27;19923;-75
2022/01/29 00:12:26;;;;;;;;;;;;;;;;;;5136320;27;19919;-76
2022/01/29 00:14:51;;;;;;;;;;;;;;;;;;5136280;27;20017;-76
2022/01/29 00:17:16;;;;;;;;;;;;;;;;;;5118008;27;19964;-76
2022/01/29 00:19:42;;;;;;;;;;;;;;;;;;5136122;27;19915;-76
2022/01/29 00:22:07;;;;;;;;;;;;;;;;;;5136333;27;20010;-76
2022/01/29 00:24:32;;;;;;;;;;;;;;;;;;5136552;27;20407;-76
2022/01/29 00:26:58;;;;;;;;;;;;;;;;;;5136302;27;19915;-76
2022/01/29 00:29:23;;;;;;;;;;;;;;;;;;5135948;27;19919;-76
2022/01/29 00:31:48;;;;;;;;;;;;;;;;;;5136154;27;19915;-76
2022/01/29 00:34:14;;;;;;;;;;;;;;;;;;5135961;27;19919;-76
2022/01/29 00:36:39;;;;;;;;;;;;;;;;;;5136029;27;19966;-76
2022/01/29 00:39:05;;;;;;;;;;;;;;;;;;5135116;27;19951;-76
2022/01/29 00:41:30;;;;;;;;;;;;;;;;;;5135918;27;19915;-76
2022/01/29 00:43:56;;;;;;;;;;;;;;;;;;5135896;27;19951;-76
2022/01/29 00:46:21;;;;;;;;;;;;;;;;;;5135619;27;19915;-76
2022/01/29 00:48:46;;;;;;;;;;;;;;;;;;5135358;27;19919;-76
2022/01/29 00:51:12;;;;;;;;;;;;;;;;;;5135645;27;19911;-76
2022/01/29 00:53:37;;;;;;;;;;;;;;;;;;5134883;27;19915;-76
2022/01/29 00:56:06;;;;;;;;;;;;;;;;;;5135510;27;20010;-76
2022/01/29 00:58:31;;;;;;;;;;;;;;;;;;5134695;27;20433;-76
2022/01/29 01:00:57;;;;;;;;;;;;;;;;;;5135584;27;20064;-76
2022/01/29 01:03:22;;;;;;;;;;;;;;;;;;5134635;27;19915;-76
2022/01/29 01:05:47;;;;;;;;;;;;;;;;;;5135420;27;20373;-76
2022/01/29 01:08:13;;;;;;;;;;;;;;;;;;5135139;27;20399;-76
2022/01/29 01:10:38;;;;;;;;;;;;;;;;;;5135547;27;20379;-76
2022/01/29 01:13:04;;;;;;;;;;;;;;;;;;5135393;27;20562;-76
2022/01/29 01:15:29;;;;;;;;;;;;;;;;;;5134910;27;19926;-76
2022/01/29 01:17:54;;;;;;;;;;;;;;;;;;5135265;27;19915;-76
2022/01/29 01:20:19;;;;;;;;;;;;;;;;;;5135032;27;19922;-77
2022/01/29 01:22:45;;;;;;;;;;;;;;;;;;5135098;27;19966;-76
2022/01/29 01:25:10;;;;;;;;;;;;;;;;;;5134858;27;20310;-76
2022/01/29 01:27:36;;;;;;;;;;;;;;;;;;5135175;27;19915;-76
2022/01/29 01:30:01;;;;;;;;;;;;;;;;;;5134954;27;19944;-76
2022/01/29 01:32:27;;;;;;;;;;;;;;;;;;5134965;27;19938;-76
2022/01/29 01:34:55;;;;;;;;;;;;;;;;;;5133768;27;19968;-76
2022/01/29 01:37:34;;;;;;;;;;;;;;;;;;5134514;27;19915;-76
2022/01/29 01:40:00;;;;;;;;;;;;;;;;;;5134169;27;19919;-76
2022/01/29 01:42:26;;;;;;;;;;;;;;;;;;5135077;27;20322;-76
2022/01/29 01:44:52;;;;;;;;;;;;;;;;;;5134982;27;19915;-76
2022/01/29 01:47:18;;;;;;;;;;;;;;;;;;5134701;27;20372;-77
2022/01/29 01:49:43;;;;;;;;;;;;;;;;;;5116361;27;19915;-76
2022/01/29 01:52:10;;;;;;;;;;;;;;;;;;5119841;27;19923;-77
2022/01/29 01:54:37;;;;;;;;;;;;;;;;;;5113438;28;19937;-76
2022/01/29 01:57:02;;;;;;;;;;;;;;;;;;5113978;28;20388;-76
2022/01/29 01:59:28;;;;;;;;;;;;;;;;;;5114020;28;19916;-76
2022/01/29 02:01:53;;;;;;;;;;;;;;;;;;5095684;28;20301;-76
2022/01/29 02:04:19;;;;;;;;;;;;;;;;;;5114226;28;20022;-76
2022/01/29 02:06:45;;;;;;;;;;;;;;;;;;5113790;28;20007;-76
2022/01/29 02:09:13;;;;;;;;;;;;;;;;;;5113835;28;19927;-76
2022/01/29 02:11:47;;;;;;;;;;;;;;;;;;5118168;28;19916;-76
2022/01/29 02:14:12;;;;;;;;;;;;;;;;;;5118443;28;19923;-76
2022/01/29 02:16:39;;;;;;;;;;;;;;;;;;5109409;28;19920;-77
2022/01/29 02:19:04;;;;;;;;;;;;;;;;;;5117927;28;19926;-76
2022/01/29 02:21:29;;;;;;;;;;;;;;;;;;5118149;28;20285;-76
2022/01/29 02:23:55;;;;;;;;;;;;;;;;;;5118062;28;19916;-76
2022/01/29 02:26:20;;;;;;;;;;;;;;;;;;5118113;28;19915;-76
2022/01/29 02:28:45;;;;;;;;;;;;;;;;;;5117859;28;20350;-76
2022/01/29 02:31:11;;;;;;;;;;;;;;;;;;5117992;28;19920;-77
2022/01/29 02:33:39;;;;;;;;;;;;;;;;;;5117535;28;19962;-77
2022/01/29 02:36:05;;;;;;;;;;;;;;;;;;5117753;28;19920;-76
2022/01/29 02:38:30;;;;;;;;;;;;;;;;;;5117759;28;19918;-77
2022/01/29 02:41:02;;;;;;;;;;;;;;;;;;5117810;28;19922;-77
2022/01/29 02:43:36;;;;;;;;;;;;;;;;;;5117880;28;19931;-77
2022/01/29 02:48:43;;;;;;;;;;;;;;;;;;5117545;28;19938;-77
2022/01/29 02:51:09;;;;;;;;;;;;;;;;;;5116461;28;19911;-77
2022/01/29 02:53:34;;;;;;;;;;;;;;;;;;5117574;28;19920;-77
2022/01/29 02:55:59;;;;;;;;;;;;;;;;;;5117360;28;19916;-77
2022/01/29 02:58:25;;;;;;;;;;;;;;;;;;5117230;28;20373;-77
2022/01/29 03:00:50;;;;;;;;;;;;;;;;;;5117431;28;19923;-76
2022/01/29 03:03:16;;;;;;;;;;;;;;;;;;5117197;28;19919;-76
2022/01/29 03:05:41;;;;;;;;;;;;;;;;;;5116452;28;20365;-77
2022/01/29 03:08:06;;;;;;;;;;;;;;;;;;5116891;28;19920;-76
2022/01/29 03:10:32;;;;;;;;;;;;;;;;;;5117144;28;19915;-76
2022/01/29 03:12:57;;;;;;;;;;;;;;;;;;5116822;28;19916;-76
2022/01/29 03:15:22;;;;;;;;;;;;;;;;;;5122453;27;19919;-77
2022/01/29 03:17:48;;;;;;;;;;;;;;;;;;5137448;27;19916;-77
2022/01/29 03:20:13;;;;;;;;;;;;;;;;;;5137636;27;20322;-76
2022/01/29 03:22:39;;;;;;;;;;;;;;;;;;5136379;27;19916;-77
2022/01/29 03:25:05;;;;;;;;;;;;;;;;;;5137576;27;19972;-77
2022/01/29 03:27:30;;;;;;;;;;;;;;;;;;5137418;27;19915;-76
2022/01/29 03:29:55;;;;;;;;;;;;;;;;;;5136805;27;19933;-76
2022/01/29 03:32:21;;;;;;;;;;;;;;;;;;5136490;27;20284;-76
2022/01/29 03:34:46;;;;;;;;;;;;;;;;;;5118982;27;19915;-77
2022/01/29 03:37:11;;;;;;;;;;;;;;;;;;5137153;27;19916;-77
2022/01/29 03:39:38;;;;;;;;;;;;;;;;;;5137013;27;19915;-76
2022/01/29 03:42:07;;;;;;;;;;;;;;;;;;5137055;27;20604;-76
2022/01/29 03:44:32;;;;;;;;;;;;;;;;;;5136917;27;19915;-77
2022/01/29 03:46:57;;;;;;;;;;;;;;;;;;5137017;27;19922;-77
2022/01/29 03:49:23;;;;;;;;;;;;;;;;;;5136419;27;19920;-76
2022/01/29 03:51:48;;;;;;;;;;;;;;;;;;5136820;27;19991;-76
2022/01/29 03:54:13;;;;;;;;;;;;;;;;;;5136891;27;20126;-76
2022/01/29 03:56:39;;;;;;;;;;;;;;;;;;5136745;27;19923;-76
2022/01/29 03:59:04;;;;;;;;;;;;;;;;;;5118241;27;19919;-76
2022/01/29 04:01:30;;;;;;;;;;;;;;;;;;5135978;27;20014;-76
2022/01/29 04:03:55;;;;;;;;;;;;;;;;;;5136677;27;20331;-76
2022/01/29 04:06:21;;;;;;;;;;;;;;;;;;5136680;27;19920;-76
2022/01/29 04:08:46;;;;;;;;;;;;;;;;;;5136390;27;19970;-76
2022/01/29 04:11:13;;;;;;;;;;;;;;;;;;5136674;27;19954;-76
2022/01/29 04:13:41;;;;;;;;;;;;;;;;;;5136247;27;20272;-76
2022/01/29 04:16:06;;;;;;;;;;;;;;;;;;5114173;28;19920;-76
2022/01/29 04:18:32;;;;;;;;;;;;;;;;;;5115325;28;20025;-77
2022/01/29 04:20:57;;;;;;;;;;;;;;;;;;5115702;28;19923;-77
2022/01/29 04:23:22;;;;;;;;;;;;;;;;;;5114536;28;19915;-77
2022/01/29 04:25:51;;;;;;;;;;;;;;;;;;5115777;28;19916;-76
2022/01/29 04:28:18;;;;;;;;;;;;;;;;;;5115433;28;19919;-77
2022/01/29 04:30:47;;;;;;;;;;;;;;;;;;5109392;28;19922;-77
2022/01/29 04:33:28;;;;;;;;;;;;;;;;;;5094975;28;20366;-76
2022/01/29 04:35:54;;;;;;;;;;;;;;;;;;5095187;28;19919;-77
2022/01/29 04:38:19;;;;;;;;;;;;;;;;;;5094927;28;19916;-77
2022/01/29 04:40:44;;;;;;;;;;;;;;;;;;5094905;28;20447;-77
2022/01/29 04:43:10;;;;;;;;;;;;;;;;;;5095034;28;20301;-77
2022/01/29 04:45:35;;;;;;;;;;;;;;;;;;5094926;28;19942;-77
2022/01/29 04:48:00;;;;;;;;;;;;;;;;;;5094729;28;19946;-77
2022/01/29 04:50:26;;;;;;;;;;;;;;;;;;5094757;28;19916;-77
2022/01/29 04:52:52;;;;;;;;;;;;;;;;;;5124257;27;20350;-77
2022/01/29 04:55:17;;;;;;;;;;;;;;;;;;5093412;28;19916;-77
2022/01/29 04:57:42;;;;;;;;;;;;;;;;;;5094551;28;20319;-77
2022/01/29 05:00:09;;;;;;;;;;;;;;;;;;5094315;28;19919;-77
2022/01/29 05:02:35;;;;;;;;;;;;;;;;;;5094613;28;20006;-76
2022/01/29 05:05:01;;;;;;;;;;;;;;;;;;5098789;28;19950;-77
2022/01/29 05:07:26;;;;;;;;;;;;;;;;;;5114727;28;19916;-77
2022/01/29 05:09:51;;;;;;;;;;;;;;;;;;5113554;28;20428;-77
2022/01/29 05:12:23;;;;;;;;;;;;;;;;;;5114686;28;20014;-77
2022/01/29 05:15:08;;;;;;;;;;;;;;;;;;5114299;27;20019;-77
2022/01/29 05:28:29;;;;;;;;;;;;;;;;;;5135014;27;20002;-77
2022/01/29 05:30:55;;;;;;;;;;;;;;;;;;5134873;27;20014;-76
2022/01/29 05:33:20;;;;;;;;;;;;;;;;;;5135018;27;19915;-77
2022/01/29 05:35:45;;;;;;;;;;;;;;;;;;5120192;27;19912;-77
2022/01/29 05:38:10;;;;;;;;;;;;;;;;;;5114355;28;19916;-77
2022/01/29 05:40:36;;;;;;;;;;;;;;;;;;5114335;28;20052;-77
2022/01/29 05:43:01;;;;;;;;;;;;;;;;;;5114567;28;19920;-77
2022/01/29 05:45:27;;;;;;;;;;;;;;;;;;5113997;28;19923;-76
2022/01/29 05:47:52;;;;;;;;;;;;;;;;;;5114127;28;19962;-77
2022/01/29 05:50:17;;;;;;;;;;;;;;;;;;5114189;28;19920;-77
2022/01/29 05:52:43;;;;;;;;;;;;;;;;;;5113766;28;19920;-77
2022/01/29 05:55:09;;;;;;;;;;;;;;;;;;5113736;28;19916;-77
2022/01/29 05:57:34;;;;;;;;;;;;;;;;;;5114222;28;20365;-76
2022/01/29 05:59:59;;;;;;;;;;;;;;;;;;5114252;28;19961;-76
2022/01/29 06:02:25;;;;;;;;;;;;;;;;;;5114069;28;19960;-76
2022/01/29 06:04:50;;;;;;;;;;;;;;;;;;5120271;28;20291;-76
2022/01/29 06:07:15;;;;;;;;;;;;;;;;;;5134377;28;20381;-77
2022/01/29 06:09:41;;;;;;;;;;;;;;;;;;5115173;28;19919;-76
2022/01/29 06:12:06;;;;;;;;;;;;;;;;;;5134561;28;19922;-76
2022/01/29 06:14:32;;;;;;;;;;;;;;;;;;5134482;28;19915;-76
2022/01/29 06:16:57;;;;;;;;;;;;;;;;;;5134226;28;19926;-77
2022/01/29 06:19:23;;;;;;;;;;;;;;;;;;5134343;27;19923;-77
2022/01/29 06:21:48;;;;;;;;;;;;;;;;;;5134539;28;19915;-76
2022/01/29 06:24:13;;;;;;;;;;;;;;;;;;5116159;28;19915;-77
2022/01/29 06:26:39;;;;;;;;;;;;;;;;;;5134430;28;19915;-76
2022/01/29 06:29:04;;;;;;;;;;;;;;;;;;5134366;27;19976;-76
2022/01/29 06:31:30;;;;;;;;;;;;;;;;;;5098549;28;20336;-76
2022/01/29 06:33:55;;;;;;;;;;;;;;;;;;5134550;28;19919;-76
2022/01/29 06:36:20;;;;;;;;;;;;;;;;;;5134403;28;19915;-76
2022/01/29 06:38:46;;;;;;;;;;;;;;;;;;5134357;27;19954;-76
2022/01/29 06:41:11;;;;;;;;;;;;;;;;;;5115949;28;19968;-76
2022/01/29 06:43:36;;;;;;;;;;;;;;;;;;5134405;28;19923;-76
2022/01/29 06:46:02;;;;;;;;;;;;;;;;;;5134158;28;19923;-76
2022/01/29 06:48:27;;;;;;;;;;;;;;;;;;5115402;27;19926;-76
2022/01/29 06:50:52;;;;;;;;;;;;;;;;;;5134312;28;19915;-76
2022/01/29 06:53:17;;;;;;;;;;;;;;;;;;5134256;28;19915;-76
2022/01/29 06:55:43;;;;;;;;;;;;;;;;;;5115831;27;19962;-76
2022/01/29 06:58:08;;;;;;;;;;;;;;;;;;5137008;27;19961;-76
2022/01/29 07:00:33;;;;;;;;;;;;;;;;;;5137342;27;20395;-76
2022/01/29 07:02:58;;;;;;;;;;;;;;;;;;5137913;27;19930;-76
2022/01/29 07:05:24;;;;;;;;;;;;;;;;;;5137742;27;20010;-76
2022/01/29 07:07:49;;;;;;;;;;;;;;;;;;5137307;27;19923;-76
2022/01/29 07:10:15;;;;;;;;;;;;;;;;;;5119395;27;20021;-77
2022/01/29 07:12:41;;;;;;;;;;;;;;;;;;5137567;27;19915;-77
2022/01/29 07:15:07;;;;;;;;;;;;;;;;;;5137356;27;20428;-76
2022/01/29 07:17:33;;;;;;;;;;;;;;;;;;5137384;27;19912;-76
2022/01/29 07:19:58;;;;;;;;;;;;;;;;;;5137587;27;19915;-77
2022/01/29 07:22:23;;;;;;;;;;;;;;;;;;5119225;27;19916;-76
2022/01/29 07:24:48;;;;;;;;;;;;;;;;;;5137644;27;19920;-76
2022/01/29 07:27:14;;;;;;;;;;;;;;;;;;5137096;27;19959;-77
2022/01/29 07:29:39;;;;;;;;;;;;;;;;;;5137898;27;19920;-77
2022/01/29 07:32:05;;;;;;;;;;;;;;;;;;5137328;27;20433;-77
2022/01/29 07:34:30;;;;;;;;;;;;;;;;;;5137498;27;19921;-77
2022/01/29 07:36:56;;;;;;;;;;;;;;;;;;5137141;27;19922;-77
2022/01/29 07:39:22;;;;;;;;;;;;;;;;;;5137099;27;19922;-77
2022/01/29 07:41:47;;;;;;;;;;;;;;;;;;5137231;27;19915;-76
2022/01/29 07:44:13;;;;;;;;;;;;;;;;;;5117967;27;19916;-76
2022/01/29 07:46:39;;;;;;;;;;;;;;;;;;5115904;28;19916;-76
2022/01/29 07:49:04;;;;;;;;;;;;;;;;;;5135210;27;19978;-76
2022/01/29 07:51:29;;;;;;;;;;;;;;;;;;5136882;27;19922;-76
2022/01/29 07:53:55;;;;;;;;;;;;;;;;;;5136848;27;19916;-76
2022/01/29 07:56:20;;;;;;;;;;;;;;;;;;5136710;27;19923;-76
2022/01/29 07:58:46;;;;;;;;;;;;;;;;;;5136781;27;19941;-75
2022/01/29 08:01:12;;;;;;;;;;;;;;;;;;5117454;27;19926;-76
2022/01/29 08:03:37;;;;;;;;;;;;;;;;;;5136597;27;20007;-77
2022/01/29 08:06:02;;;;;;;;;;;;;;;;;;5136246;27;19915;-75
2022/01/29 08:08:27;;;;;;;;;;;;;;;;;;5117449;27;19919;-75
2022/01/29 08:10:53;;;;;;;;;;;;;;;;;;5136582;27;20015;-76
2022/01/29 08:13:18;;;;;;;;;;;;;;;;;;5136443;27;19916;-75
2022/01/29 08:15:43;;;;;;;;;;;;;;;;;;5136211;27;19951;-76
2022/01/29 08:18:09;;;;;;;;;;;;;;;;;;5136283;27;19916;-75
2022/01/29 08:20:34;;;;;;;;;;;;;;;;;;5136427;27;19920;-77
2022/01/29 08:23:05;;;;;;;;;;;;;;;;;;5136775;27;20392;-78
2022/01/29 08:25:30;;;;;;;;;;;;;;;;;;5118201;27;19919;-76
2022/01/29 08:27:55;;;;;;;;;;;;;;;;;;5136088;27;20014;-75
2022/01/29 08:30:21;;;;;;;;;;;;;;;;;;5135054;27;19923;-75
2022/01/29 08:32:46;;;;;;;;;;;;;;;;;;5117748;27;19923;-75
2022/01/29 08:35:13;;;;;;;;;;;;;;;;;;5136073;27;19915;-75
2022/01/29 08:37:39;;;;;;;;;;;;;;;;;;5136022;27;20376;-75
2022/01/29 08:40:05;;;;;;;;;;;;;;;;;;5117736;27;19920;-74
2022/01/29 08:42:30;;;;;;;;;;;;;;;;;;5135844;27;19915;-74
2022/01/29 08:44:56;;;;;;;;;;;;;;;;;;5136083;27;19969;-75
2022/01/29 08:47:21;;;;;;;;;;;;;;;;;;5135807;27;19960;-74
2022/01/29 08:49:47;;;;;;;;;;;;;;;;;;5134259;27;19923;-74
2022/01/29 08:52:12;;;;;;;;;;;;;;;;;;5134823;27;19923;-75
2022/01/29 08:54:38;;;;;;;;;;;;;;;;;;5135571;27;19998;-72
2022/01/29 08:57:03;;;;;;;;;;;;;;;;;;5135432;27;20010;-71
2022/01/29 08:59:28;;;;;;;;;;;;;;;;;;5117081;27;19988;-74
2022/01/29 09:01:53;;;;;;;;;;;;;;;;;;5134865;27;20399;-74
2022/01/29 09:04:19;;;;;;;;;;;;;;;;;;5117016;27;19984;-73
2022/01/29 09:06:44;;;;;;;;;;;;;;;;;;5135282;27;19954;-73
2022/01/29 09:09:10;;;;;;;;;;;;;;;;;;5116874;27;19920;-73
2022/01/29 09:11:35;;;;;;;;;;;;;;;;;;5135456;27;19915;-72
2022/01/29 09:14:00;;;;;;;;;;;;;;;;;;5117093;27;20288;-76
2022/01/29 09:16:26;;;;;;;;;;;;;;;;;;5136341;27;20377;-76
2022/01/29 09:18:51;;;;;;;;;;;;;;;;;;5135878;27;20014;-73
2022/01/29 09:21:16;;;;;;;;;;;;;;;;;;5134845;27;19915;-73
2022/01/29 09:23:42;;;;;;;;;;;;;;;;;;5135261;27;19975;-74
2022/01/29 09:26:07;;;;;;;;;;;;;;;;;;5135067;27;19923;-73
2022/01/29 09:28:32;;;;;;;;;;;;;;;;;;5116672;27;19926;-73
2022/01/29 09:30:58;;;;;;;;;;;;;;;;;;5134275;27;19977;-73
2022/01/29 09:33:23;;;;;;;;;;;;;;;;;;5135177;27;20422;-73
2022/01/29 09:35:48;;;;;;;;;;;;;;;;;;5134944;27;19919;-73
2022/01/29 09:38:14;;;;;;;;;;;;;;;;;;5134895;27;19919;-73
2022/01/29 09:40:43;;;;;;;;;;;;;;;;;;5134984;27;19908;-74
2022/01/29 09:43:10;;;;;;;;;;;;;;;;;;5134786;27;19915;-73
2022/01/29 09:45:36;;;;;;;;;;;;;;;;;;5134955;27;19915;-73
2022/01/29 09:48:02;;;;;;;;;;;;;;;;;;5134921;27;20007;-75
2022/01/29 09:50:28;;;;;;;;;;;;;;;;;;5134616;27;20286;-74
2022/01/29 09:52:53;;;;;;;;;;;;;;;;;;5134858;27;19916;-75
2022/01/29 09:55:19;;;;;;;;;;;;;;;;;;5134648;27;19967;-74
2022/01/29 09:57:44;;;;;;;;;;;;;;;;;;5134754;27;19965;-73
2022/01/29 10:00:10;;;;;;;;;;;;;;;;;;5134451;27;20344;-72
2022/01/29 10:02:39;;;;;;;;;;;;;;;;;;5134674;28;20011;-72
2022/01/29 10:05:05;;;;;;;;;;;;;;;;;;5134363;28;19915;-73
2022/01/29 10:07:32;;;;;;;;;;;;;;;;;;5135306;28;19919;-75
2022/01/29 10:09:58;;;;;;;;;;;;;;;;;;5135094;27;19924;-76
2022/01/29 10:12:27;;;;;;;;;;;;;;;;;;5136151;28;19915;-77
2022/01/29 10:15:00;;;;;;;;;;;;;;;;;;5136788;28;20010;-73
2022/01/29 10:17:47;;;;;;;;;;;;;;;;;;5098136;28;19927;-73
2022/01/29 10:20:18;;;;;;;;;;;;;;;;;;5089903;28;21523;-73
2022/01/29 10:22:44;;;;;;;;;;;;;;;;;;5120879;28;19919;-73
2022/01/29 10:25:14;;;;;;;;;;;;;;;;;;5115359;28;19916;-72
2022/01/29 10:27:39;;;;;;;;;;;;;;;;;;5095583;28;19922;-73
2022/01/29 10:30:07;;;;;;;;;;;;;;;;;;5115237;28;20319;-72
2022/01/29 10:32:35;;;;;;;;;;;;;;;;;;5138029;27;19919;-73
2022/01/29 10:35:00;;;;;;;;;;;;;;;;;;5134732;27;19915;-72
2022/01/29 10:37:26;;;;;;;;;;;;;;;;;;5138135;27;20311;-73
2022/01/29 10:39:55;;;;;;;;;;;;;;;;;;5135797;27;19915;-77
2022/01/29 10:42:29;;;;;;;;;;;;;;;;;;5138855;27;20423;-77
2022/01/29 10:44:56;;;;;;;;;;;;;;;;;;5140985;27;19919;-80
2022/01/29 10:47:21;;;;;;;;;;;;;;;;;;5140507;27;19916;-79
2022/01/29 10:49:51;;;;;;;;;;;;;;;;;;5138984;27;19926;-77
2022/01/29 10:52:17;;;;;;;;;;;;;;;;;;5121038;27;19915;-77
2022/01/29 10:54:43;;;;;;;;;;;;;;;;;;5137869;27;19915;-77
2022/01/29 10:57:14;;;;;;;;;;;;;;;;;;5136161;27;19916;-76
2022/01/29 10:59:50;;;;;;;;;;;;;;;;;;5137309;27;19915;-76
2022/01/29 11:02:16;;;;;;;;;;;;;;;;;;5136487;27;19919;-76
2022/01/29 11:04:42;;;;;;;;;;;;;;;;;;5135672;27;19925;-77
2022/01/29 11:07:15;;;;;;;;;;;;;;;;;;5137563;27;19915;-78
2022/01/29 11:09:42;;;;;;;;;;;;;;;;;;5121908;27;20018;-77
2022/01/29 11:12:08;;;;;;;;;;;;;;;;;;5120313;27;19919;-77
2022/01/29 11:14:35;;;;;;;;;;;;;;;;;;5137728;27;20372;-77
2022/01/29 11:17:03;;;;;;;;;;;;;;;;;;5137600;27;19945;-77
2022/01/29 11:19:28;;;;;;;;;;;;;;;;;;5138157;27;19915;-78
2022/01/29 11:21:56;;;;;;;;;;;;;;;;;;5137617;27;19915;-77
2022/01/29 11:24:23;;;;;;;;;;;;;;;;;;5137762;27;20399;-77
2022/01/29 11:26:49;;;;;;;;;;;;;;;;;;5136491;27;19961;-78
2022/01/29 11:29:21;;;;;;;;;;;;;;;;;;5136336;27;19929;-77
2022/01/29 11:31:46;;;;;;;;;;;;;;;;;;5138141;27;19915;-78
2022/01/29 11:34:11;;;;;;;;;;;;;;;;;;5132252;27;19919;-77
2022/01/29 11:36:49;;;;;;;;;;;;;;;;;;5117578;28;19939;-77
2022/01/29 11:39:24;;;;;;;;;;;;;;;;;;5116852;28;20284;-77
2022/01/29 11:42:08;;;;;;;;;;;;;;;;;;5118449;28;19962;-79
2022/01/29 11:44:34;;;;;;;;;;;;;;;;;;5119576;28;20273;-82
2022/01/29 11:47:19;;;;;;;;;;;;;;;;;;5118426;27;19967;-81
2022/01/29 11:49:44;;;;;;;;;;;;;;;;;;5117503;28;19924;-77
2022/01/29 11:52:23;;;;;;;;;;;;;;;;;;5119299;28;19923;-78
2022/01/29 11:54:59;;;;;;;;;;;;;;;;;;5118945;28;19915;-79
2022/01/29 11:57:24;;;;;;;;;;;;;;;;;;5118954;28;19930;-77
2022/01/29 11:59:50;;;;;;;;;;;;;;;;;;5119066;28;19916;-78
2022/01/29 12:02:15;;;;;;;;;;;;;;;;;;5100186;28;19923;-80
2022/01/29 12:04:54;;;;;;;;;;;;;;;;;;5118679;27;19937;-78
2022/01/29 12:09:47;;;;;;;;;;;;;;;;;;5136526;27;19919;-76
2022/01/29 12:12:32;;;;;;;;;;;;;;;;;;5136775;27;20246;-76
2022/01/29 12:15:17;;;;;;;;;;;;;;;;;;5136504;27;19915;-76
2022/01/29 12:17:46;;;;;;;;;;;;;;;;;;5119058;27;19976;-77
2022/01/29 12:20:15;;;;;;;;;;;;;;;;;;5135981;27;19916;-77
2022/01/29 12:22:41;;;;;;;;;;;;;;;;;;5134090;27;19941;-77
2022/01/29 12:25:11;;;;;;;;;;;;;;;;;;5134280;27;20407;-77
2022/01/29 12:27:48;;;;;;;;;;;;;;;;;;5135603;27;19915;-77
2022/01/29 12:30:15;;;;;;;;;;;;;;;;;;5136232;27;19924;-76
2022/01/29 12:32:52;;;;;;;;;;;;;;;;;;5136326;27;19919;-77
2022/01/29 12:35:18;;;;;;;;;;;;;;;;;;5117928;27;19916;-77
2022/01/29 12:37:52;;;;;;;;;;;;;;;;;;5136177;27;19911;-77
2022/01/29 12:40:20;;;;;;;;;;;;;;;;;;5135908;27;19957;-77
2022/01/29 12:42:55;;;;;;;;;;;;;;;;;;5136164;27;19926;-77
2022/01/29 12:45:22;;;;;;;;;;;;;;;;;;5136234;27;20276;-77
2022/01/29 12:47:47;;;;;;;;;;;;;;;;;;5135588;27;19916;-77
2022/01/29 12:50:18;;;;;;;;;;;;;;;;;;5135691;27;19927;-76
2022/01/29 12:52:43;;;;;;;;;;;;;;;;;;5135699;27;19971;-77
2022/01/29 12:55:11;;;;;;;;;;;;;;;;;;5116503;27;19919;-77
2022/01/29 12:57:41;;;;;;;;;;;;;;;;;;5135948;27;20361;-76
2022/01/29 13:00:08;;;;;;;;;;;;;;;;;;5135511;27;19922;-77
2022/01/29 13:02:33;;;;;;;;;;;;;;;;;;5135613;27;19941;-80
2022/01/29 13:04:59;;;;;;;;;;;;;;;;;;5117674;27;19915;-76
2022/01/29 13:07:24;;;;;;;;;;;;;;;;;;5135550;27;19951;-77
2022/01/29 13:09:56;;;;;;;;;;;;;;;;;;5136196;27;19920;-77
2022/01/29 13:12:21;;;;;;;;;;;;;;;;;;5138313;27;19916;-77
2022/01/29 13:14:49;;;;;;;;;;;;;;;;;;5118788;27;20010;-77
2022/01/29 13:17:16;;;;;;;;;;;;;;;;;;5137141;27;19969;-78
2022/01/29 13:19:46;;;;;;;;;;;;;;;;;;5140438;27;19915;-79
2022/01/29 13:22:11;;;;;;;;;;;;;;;;;;5140447;27;19915;-78
2022/01/29 13:24:37;;;;;;;;;;;;;;;;;;5141144;27;19915;-79
2022/01/29 13:27:03;;;;;;;;;;;;;;;;;;5140432;27;20300;-78
2022/01/29 13:29:33;;;;;;;;;;;;;;;;;;5121709;27;19919;-79
2022/01/29 13:31:59;;;;;;;;;;;;;;;;;;5121906;27;20370;-79
2022/01/29 13:34:28;;;;;;;;;;;;;;;;;;5119529;28;19935;-79
2022/01/29 13:36:54;;;;;;;;;;;;;;;;;;5101484;28;20010;-79
2022/01/29 13:39:19;;;;;;;;;;;;;;;;;;5120570;28;19958;-78
2022/01/29 13:41:44;;;;;;;;;;;;;;;;;;5100443;28;19995;-78
2022/01/29 13:44:10;;;;;;;;;;;;;;;;;;5118069;28;20373;-78
2022/01/29 13:46:36;;;;;;;;;;;;;;;;;;5119004;28;20292;-79
2022/01/29 13:49:03;;;;;;;;;;;;;;;;;;5119356;28;19920;-79
2022/01/29 13:51:35;;;;;;;;;;;;;;;;;;5083499;28;19915;-79
2022/01/29 13:54:03;;;;;;;;;;;;;;;;;;5118913;28;19923;-78
2022/01/29 13:56:29;;;;;;;;;;;;;;;;;;5118275;28;19916;-79
2022/01/29 13:59:05;;;;;;;;;;;;;;;;;;5117079;28;19916;-77
2022/01/29 14:01:33;;;;;;;;;;;;;;;;;;5129927;28;19954;-79
2022/01/29 14:03:59;;;;;;;;;;;;;;;;;;5135727;28;20339;-80
2022/01/29 14:06:30;;;;;;;;;;;;;;;;;;5120535;28;19973;-82
2022/01/29 14:09:19;;;;;;;;;;;;;;;;;;5102803;28;20392;-77
2022/01/29 14:11:54;;;;;;;;;;;;;;;;;;5085140;28;19920;-77
2022/01/29 14:14:21;;;;;;;;;;;;;;;;;;5120483;28;20448;-79
2022/01/29 14:16:46;;;;;;;;;;;;;;;;;;5120489;28;19920;-77
2022/01/29 14:19:18;;;;;;;;;;;;;;;;;;5120308;28;19915;-77
2022/01/29 14:21:44;;;;;;;;;;;;;;;;;;5124487;27;19920;-77
2022/01/29 14:24:10;;;;;;;;;;;;;;;;;;5137663;27;19915;-78
2022/01/29 14:26:35;;;;;;;;;;;;;;;;;;5136850;27;20813;-77
2022/01/29 14:29:01;;;;;;;;;;;;;;;;;;5125110;27;19926;-78
2022/01/29 14:31:26;;;;;;;;;;;;;;;;;;5119109;27;19923;-77
2022/01/29 14:33:51;;;;;;;;;;;;;;;;;;5120898;27;19922;-77
2022/01/29 14:36:16;;;;;;;;;;;;;;;;;;5126003;27;19968;-78
2022/01/29 14:38:42;;;;;;;;;;;;;;;;;;5131799;27;19924;-78
2022/01/29 14:41:07;;;;;;;;;;;;;;;;;;5126548;27;19916;-78
2022/01/29 14:43:33;;;;;;;;;;;;;;;;;;5134599;27;19922;-77
2022/01/29 14:46:00;;;;;;;;;;;;;;;;;;5126351;27;19916;-77
2022/01/29 14:48:25;;;;;;;;;;;;;;;;;;5136759;27;19924;-77
2022/01/29 14:50:51;;;;;;;;;;;;;;;;;;5129346;27;19915;-78
2022/01/29 14:53:18;;;;;;;;;;;;;;;;;;5138566;27;20273;-78
2022/01/29 14:55:43;;;;;;;;;;;;;;;;;;5120950;27;19920;-79
2022/01/29 14:58:08;;;;;;;;;;;;;;;;;;5124212;27;19922;-79
2022/01/29 15:00:34;;;;;;;;;;;;;;;;;;5116815;27;19972;-79
2022/01/29 15:03:02;;;;;;;;;;;;;;;;;;5135973;27;20459;-78
2022/01/29 15:05:28;;;;;;;;;;;;;;;;;;5131821;27;19920;-78
2022/01/29 15:07:53;;;;;;;;;;;;;;;;;;5121128;27;19937;-77
2022/01/29 15:10:18;;;;;;;;;;;;;;;;;;5118679;28;19920;-77
2022/01/29 15:12:44;;;;;;;;;;;;;;;;;;5099289;28;20365;-77
2022/01/29 15:15:09;;;;;;;;;;;;;;;;;;5117145;28;19967;-77
2022/01/29 15:17:34;;;;;;;;;;;;;;;;;;5115835;28;19919;-77
2022/01/29 15:20:00;;;;;;;;;;;;;;;;;;5117159;28;19923;-77
2022/01/29 15:22:25;;;;;;;;;;;;;;;;;;5117008;28;19916;-76
2022/01/29 15:24:50;;;;;;;;;;;;;;;;;;5116904;28;20265;-78
2022/01/29 15:27:16;;;;;;;;;;;;;;;;;;5116581;28;19919;-76
2022/01/29 15:29:41;;;;;;;;;;;;;;;;;;5116841;28;19919;-77
2022/01/29 15:32:07;;;;;;;;;;;;;;;;;;5116529;27;19923;-76
2022/01/29 15:34:33;;;;;;;;;;;;;;;;;;5098483;28;20430;-76
2022/01/29 15:36:58;;;;;;;;;;;;;;;;;;5116720;28;19923;-76
2022/01/29 15:39:24;;;;;;;;;;;;;;;;;;5116675;28;19923;-76
2022/01/29 15:41:49;;;;;;;;;;;;;;;;;;5103975;27;19935;-77
2022/01/29 15:44:14;;;;;;;;;;;;;;;;;;5122829;27;19926;-77
2022/01/29 15:46:39;;;;;;;;;;;;;;;;;;5125489;27;19916;-76
2022/01/29 15:49:05;;;;;;;;;;;;;;;;;;5107176;27;19930;-76
2022/01/29 15:51:30;;;;;;;;;;;;;;;;;;5125476;27;20327;-76
2022/01/29 15:53:57;;;;;;;;;;;;;;;;;;5124689;27;19916;-76
2022/01/29 15:56:22;;;;;;;;;;;;;;;;;;5106259;27;19920;-76
2022/01/29 15:58:47;;;;;;;;;;;;;;;;;;5124465;27;19915;-76
2022/01/29 16:01:13;;;;;;;;;;;;;;;;;;5106758;27;20053;-76
2022/01/29 16:03:38;;;;;;;;;;;;;;;;;;5108515;28;20369;-75
2022/01/29 16:06:03;;;;;;;;;;;;;;;;;;5129589;27;19968;-76
2022/01/29 16:08:29;;;;;;;;;;;;;;;;;;5125152;27;19922;-76
2022/01/29 16:10:55;;;;;;;;;;;;;;;;;;5124404;27;19921;-77
2022/01/29 16:13:21;;;;;;;;;;;;;;;;;;5126866;27;19916;-76
2022/01/29 16:15:47;;;;;;;;;;;;;;;;;;5123964;27;19994;-77
2022/01/29 16:18:12;;;;;;;;;;;;;;;;;;5127144;27;19915;-77
2022/01/29 16:20:38;;;;;;;;;;;;;;;;;;5129997;27;20325;-76
2022/01/29 16:23:03;;;;;;;;;;;;;;;;;;5108623;27;19923;-76
2022/01/29 16:25:38;;;;;;;;;;;;;;;;;;5129982;27;20003;-78
2022/01/29 16:28:05;;;;;;;;;;;;;;;;;;5127647;27;20283;-76
2022/01/29 16:30:30;;;;;;;;;;;;;;;;;;5129953;27;19919;-76
2022/01/29 16:32:56;;;;;;;;;;;;;;;;;;5115019;28;20014;-76
2022/01/29 16:35:21;;;;;;;;;;;;;;;;;;5115415;28;19916;-76
2022/01/29 16:37:47;;;;;;;;;;;;;;;;;;5115664;28;20373;-77
2022/01/29 16:40:12;;;;;;;;;;;;;;;;;;5115303;28;19923;-77
2022/01/29 16:42:37;;;;;;;;;;;;;;;;;;5115493;28;19923;-77
2022/01/29 16:45:03;;;;;;;;;;;;;;;;;;5097357;27;20365;-78
2022/01/29 16:47:29;;;;;;;;;;;;;;;;;;5115642;28;19912;-77
2022/01/29 16:49:54;;;;;;;;;;;;;;;;;;5115801;28;19920;-77
2022/01/29 16:52:20;;;;;;;;;;;;;;;;;;5115406;28;19915;-77
2022/01/29 16:54:45;;;;;;;;;;;;;;;;;;5115320;28;19922;-77
2022/01/29 16:57:11;;;;;;;;;;;;;;;;;;5115556;28;19916;-77